Time;durP1;ratioP1;P1;durP2;ratioP2;P2;SDS_P1;SDS_P2;PMS_P1;PMS_P2;Temp;Humidity;BMP_temperature;BMP_pressure;BME280_temperature;BME280_humidity;BME280_pressure;Samples;Min_cycle;Max_cycle;Signal;HPM_P1;HPM_P2
2022/04/05 00:01:58;;;;;;;7.03;2.00;;;;;;;13.50;23.53;100084.97;5059757;28;20053;-84
2022/04/05 00:04:25;;;;;;;7.13;2.30;;;;;;;12.55;23.78;99941.56;5070315;28;20077;-84
2022/04/05 00:06:52;;;;;;;6.40;3.17;;;;;;;13.07;23.79;100035.88;5077204;28;20125;-84
2022/04/05 00:09:19;;;;;;;7.37;3.20;;;;;;;13.01;24.03;100035.97;5069982;28;20097;-85
2022/04/05 00:11:46;;;;;;;5.63;2.57;;;;;;;12.85;24.12;100012.16;5068117;28;20055;-84
2022/04/05 00:14:14;;;;;;;4.73;2.63;;;;;;;13.09;24.21;100056.00;5071340;28;20181;-85
2022/04/05 00:16:41;;;;;;;4.93;2.90;;;;;;;13.12;24.26;100069.41;5069474;28;20128;-85
2022/04/05 00:19:08;;;;;;;7.60;2.83;;;;;;;12.01;24.51;99906.72;5085340;28;20052;-85
2022/04/05 00:21:35;;;;;;;6.80;3.27;;;;;;;12.19;24.48;99948.94;5073093;28;20072;-85
2022/04/05 00:24:02;;;;;;;6.40;2.97;;;;;;;11.93;24.69;99912.16;5067684;28;20584;-85
2022/04/05 00:26:29;;;;;;;8.77;3.33;;;;;;;12.64;24.52;100024.88;5062241;28;20041;-86
2022/04/05 00:28:56;;;;;;;4.70;2.83;;;;;;;12.16;24.89;99974.75;5071422;28;20044;-85
2022/04/05 00:31:23;;;;;;;5.00;2.37;;;;;;;12.75;24.68;100062.78;5067776;28;20110;-86
2022/04/05 00:33:51;;;;;;;5.33;3.00;;;;;;;12.78;24.72;100065.78;5066209;28;20048;-87
2022/04/05 00:36:18;;;;;;;4.50;1.97;;;;;;;12.71;24.71;100058.94;5067315;28;20588;-85
2022/04/05 00:38:45;;;;;;;3.83;2.10;;;;;;;12.03;25.04;99952.03;5066490;28;20131;-86
2022/04/05 00:41:11;;;;;;;3.80;2.23;;;;;;;12.02;25.00;99950.34;5064757;28;20094;-85
2022/04/05 00:43:40;;;;;;;3.70;2.57;;;;;;;11.52;25.16;99868.03;5072649;28;20090;-85
2022/04/05 00:46:07;;;;;;;7.57;1.80;;;;;;;12.94;24.98;100088.78;5065743;28;20117;-85
2022/04/05 00:48:47;;;;;;;8.40;2.10;;;;;;;12.84;24.90;100100.19;5068469;28;20066;-86
2022/04/05 00:51:16;;;;;;;5.75;1.70;;;;;;;12.75;25.13;100082.38;5061125;28;20076;-84
2022/04/05 00:53:47;;;;;;;3.67;1.80;;;;;;;12.62;24.98;100049.59;5052971;28;20096;-85
2022/04/05 00:56:18;;;;;;;7.47;2.40;;;;;;;12.96;24.90;100108.13;5072314;28;20138;-86
2022/04/05 00:58:52;;;;;;;2.60;1.57;;;;;;;12.27;25.20;100004.22;5070073;28;20524;-86
2022/04/05 01:01:21;;;;;;;6.33;2.43;;;;;;;11.69;25.01;99910.28;5064948;28;20106;-86
2022/04/05 01:03:51;;;;;;;4.25;1.90;;;;;;;12.82;25.19;100091.25;5064076;28;20505;-85
2022/04/05 01:06:19;;;;;;;5.25;2.35;;;;;;;12.85;25.19;100089.78;5075501;28;20053;-85
2022/04/05 01:08:47;;;;;;;5.37;1.93;;;;;;;12.79;25.38;100078.69;5058801;28;20471;-85
2022/04/05 01:11:14;;;;;;;3.13;2.07;;;;;;;12.94;25.78;100110.38;5057223;28;20056;-85
2022/04/05 01:13:41;;;;;;;5.27;1.87;;;;;;;12.76;25.86;100081.28;5063784;28;20040;-85
2022/04/05 01:16:10;;;;;;;7.03;1.83;;;;;;;12.72;25.90;100069.03;5064013;28;20048;-85
2022/04/05 01:18:38;;;;;;;9.83;2.43;;;;;;;12.51;25.60;100046.97;5065253;28;20056;-86
2022/04/05 01:21:05;;;;;;;4.03;1.60;;;;;;;11.76;25.69;99921.06;5063425;28;20040;-86
2022/04/05 01:23:32;;;;;;;4.43;2.33;;;;;;;12.54;26.07;100071.53;5070753;28;20493;-85
2022/04/05 01:26:00;;;;;;;4.03;2.27;;;;;;;11.75;25.99;99939.81;5086165;28;20055;-84
2022/04/05 01:28:27;;;;;;;2.27;1.73;;;;;;;12.56;26.65;100058.06;5087096;28;20045;-86
2022/04/05 01:30:54;;;;;;;4.93;2.10;;;;;;;12.54;26.38;100063.13;5098746;28;20048;-85
2022/04/05 01:33:21;;;;;;;2.63;1.70;;;;;;;12.65;26.35;100096.56;5090489;28;20450;-86
2022/04/05 01:35:49;;;;;;;2.90;1.63;;;;;;;12.19;26.56;100038.53;5066720;28;20498;-85
2022/04/05 01:38:16;;;;;;;4.13;1.90;;;;;;;12.54;26.14;100068.72;5068150;28;20600;-86
2022/04/05 01:40:43;;;;;;;4.60;1.97;;;;;;;12.64;26.34;100087.34;5065591;28;20080;-86
2022/04/05 01:43:09;;;;;;;4.00;1.60;;;;;;;12.77;26.15;100094.13;5058134;28;20084;-86
2022/04/05 01:45:36;;;;;;;6.37;2.10;;;;;;;12.61;26.22;100118.75;5069481;28;20080;-86
2022/04/05 01:48:04;;;;;;;2.97;1.73;;;;;;;11.77;26.63;99962.75;5070393;28;20083;-85
2022/04/05 01:50:31;;;;;;;4.17;1.77;;;;;;;11.76;26.79;100002.19;5068632;28;20094;-85
2022/04/05 01:52:59;;;;;;;3.93;1.80;;;;;;;10.73;26.85;99845.41;5058250;28;20056;-85
2022/04/05 01:55:26;;;;;;;2.17;1.47;;;;;;;12.37;27.21;100102.06;5066140;28;20111;-85
2022/04/05 01:57:52;;;;;;;2.50;1.10;;;;;;;11.25;27.65;99933.03;5075239;28;20930;-84
2022/04/05 02:00:19;;;;;;;1.30;1.20;;;;;;;10.54;28.15;99853.75;5072756;28;20045;-85
2022/04/05 02:02:46;;;;;;;1.83;1.20;;;;;;;10.96;28.28;99924.72;5074896;28;20056;-84
2022/04/05 02:05:13;;;;;;;1.70;1.30;;;;;;;11.34;28.19;99995.50;5092599;28;20146;-83
2022/04/05 02:07:40;;;;;;;2.87;1.37;;;;;;;10.97;28.51;99935.59;5099737;28;20086;-86
2022/04/05 02:10:07;;;;;;;2.70;1.40;;;;;;;11.03;28.28;99939.16;5082658;28;20055;-86
2022/04/05 02:12:34;;;;;;;2.40;0.93;;;;;;;11.07;28.39;99941.06;5068175;28;20069;-86
2022/04/05 02:15:01;;;;;;;1.43;1.17;;;;;;;11.60;28.41;100049.13;5069853;28;20087;-85
2022/04/05 02:17:28;;;;;;;5.30;1.70;;;;;;;11.57;28.30;100033.78;5069200;28;20068;-86
2022/04/05 02:19:56;;;;;;;2.23;1.40;;;;;;;11.88;28.10;100071.72;5058464;28;20080;-86
2022/04/05 02:22:24;;;;;;;2.07;1.40;;;;;;;11.89;28.28;100063.03;5086538;28;20049;-86
2022/04/05 02:24:52;;;;;;;3.63;1.77;;;;;;;11.89;28.25;100042.59;5070265;28;20084;-86
2022/04/05 02:27:24;;;;;;;3.33;1.77;;;;;;;11.45;27.96;99966.25;5065985;28;20052;-86
2022/04/05 02:29:51;;;;;;;2.87;1.80;;;;;;;11.52;27.78;99958.38;5074475;28;20102;-86
2022/04/05 02:32:18;;;;;;;3.43;1.83;;;;;;;11.63;27.47;99954.28;5069702;28;20087;-85
2022/04/05 02:34:45;;;;;;;4.00;1.87;;;;;;;12.44;27.68;100066.09;5064444;28;20114;-85
2022/04/05 02:37:12;;;;;;;1.87;1.20;;;;;;;12.48;27.20;100066.34;5070727;28;20121;-84
2022/04/05 02:39:38;;;;;;;3.07;1.70;;;;;;;11.97;27.46;99986.81;5063397;28;20564;-85
2022/04/05 02:42:05;;;;;;;4.13;1.80;;;;;;;12.00;27.39;100003.00;5067808;28;20053;-84
2022/04/05 02:44:34;;;;;;;2.17;1.33;;;;;;;12.36;27.40;100055.59;5066991;28;20076;-85
2022/04/05 02:47:02;;;;;;;2.90;1.43;;;;;;;12.21;27.18;100041.88;5070714;28;20568;-85
2022/04/05 02:49:30;;;;;;;4.53;1.87;;;;;;;12.18;27.39;100023.69;5066880;28;20048;-85
2022/04/05 02:51:57;;;;;;;2.77;1.37;;;;;;;11.49;27.53;99917.03;5053229;28;20045;-85
2022/04/05 02:54:26;;;;;;;3.03;1.67;;;;;;;11.61;27.24;99927.75;5065915;28;20052;-85
2022/04/05 02:56:53;;;;;;;3.08;1.60;;;;;;;10.96;27.36;99822.19;5055837;28;20053;-84
2022/04/05 02:59:20;;;;;;;4.90;2.07;;;;;;;12.07;27.60;100006.25;5070590;28;20132;-85
2022/04/05 03:01:47;;;;;;;2.50;1.40;;;;;;;12.15;27.30;100012.28;5058311;28;20555;-84
2022/04/05 03:04:14;;;;;;;6.10;1.80;;;;;;;12.22;27.37;100023.91;5068720;28;20110;-85
2022/04/05 03:06:41;;;;;;;3.37;1.60;;;;;;;12.30;27.49;100034.41;5071374;28;20044;-86
2022/04/05 03:09:08;;;;;;;2.53;1.47;;;;;;;12.21;27.37;100019.47;5062704;28;20088;-84
2022/04/05 03:11:35;;;;;;;3.13;1.80;;;;;;;11.94;27.53;99981.00;5066940;28;20519;-84
2022/04/05 03:14:02;;;;;;;1.27;0.83;;;;;;;11.80;27.74;100025.66;5075448;28;20164;-84
2022/04/05 03:16:29;;;;;;;2.90;1.30;;;;;;;11.65;27.76;100023.06;5069050;28;20052;-84
2022/04/05 03:18:56;;;;;;;3.93;1.53;;;;;;;11.46;27.75;99936.38;5072646;28;20059;-85
2022/04/05 03:21:23;;;;;;;3.27;1.50;;;;;;;11.28;27.37;99884.88;5066026;28;20041;-85
2022/04/05 03:23:49;;;;;;;11.30;1.83;;;;;;;11.63;27.78;99959.88;5070070;28;20056;-84
2022/04/05 03:26:19;;;;;;;4.10;1.60;;;;;;;11.50;27.90;99955.03;5061647;28;20049;-83
2022/04/05 03:28:46;;;;;;;2.90;1.60;;;;;;;11.65;27.93;99986.69;5066943;28;20103;-83
2022/04/05 03:31:13;;;;;;;1.43;1.00;;;;;;;11.89;27.81;100021.06;5075010;28;20092;-83
2022/04/05 03:33:40;;;;;;;1.73;1.30;;;;;;;11.79;28.03;100022.00;5083415;28;20041;-85
2022/04/05 03:36:07;;;;;;;2.60;1.80;;;;;;;11.03;27.70;99875.72;5062389;28;20079;-84
2022/04/05 03:38:34;;;;;;;2.43;1.50;;;;;;;11.65;28.14;100000.69;5071122;28;20075;-85
2022/04/05 03:41:00;;;;;;;1.13;1.03;;;;;;;11.68;28.35;100008.47;5068799;28;20105;-85
2022/04/05 03:43:32;;;;;;;1.43;1.00;;;;;;;10.99;28.85;99954.88;5071993;28;20057;-85
2022/04/05 03:45:58;;;;;;;1.27;0.87;;;;;;;11.51;28.49;100012.59;5074488;28;20568;-83
2022/04/05 03:48:26;;;;;;;2.20;1.90;;;;;;;11.40;28.12;99974.72;5074414;28;20063;-84
2022/04/05 03:50:53;;;;;;;3.60;1.50;;;;;;;11.69;28.13;99999.78;5073643;28;20381;-83
2022/04/05 03:53:19;;;;;;;2.43;1.57;;;;;;;11.67;28.59;100006.81;5073037;28;20563;-84
2022/04/05 03:55:47;;;;;;;3.33;2.00;;;;;;;11.34;28.22;99961.94;5063403;28;20048;-84
2022/04/05 03:58:14;;;;;;;4.27;1.90;;;;;;;11.73;28.19;100009.25;5065581;28;20088;-84
2022/04/05 04:00:40;;;;;;;3.43;1.40;;;;;;;11.27;28.41;99945.53;5065975;28;20083;-84
2022/04/05 04:03:07;;;;;;;2.33;1.60;;;;;;;11.08;28.43;99920.38;5067784;28;20048;-86
2022/04/05 04:05:34;;;;;;;5.03;1.80;;;;;;;11.33;28.12;99955.53;5065905;28;20060;-86
2022/04/05 04:08:01;;;;;;;2.30;1.43;;;;;;;11.37;28.48;99961.34;5063807;28;20088;-85
2022/04/05 04:10:28;;;;;;;5.07;1.37;;;;;;;11.57;28.25;99997.41;5072346;28;20107;-85
2022/04/05 04:12:55;;;;;;;1.67;1.07;;;;;;;11.42;28.68;100006.03;5072127;28;20127;-86
2022/04/05 04:15:22;;;;;;;2.30;1.30;;;;;;;11.09;29.03;99952.78;5070330;28;20183;-85
2022/04/05 04:17:49;;;;;;;3.40;1.70;;;;;;;11.38;28.81;100000.22;5071621;28;20084;-86
2022/04/05 04:20:15;;;;;;;3.33;1.77;;;;;;;11.48;28.86;100007.59;5073112;28;20080;-85
2022/04/05 04:22:42;;;;;;;4.63;2.50;;;;;;;11.43;28.63;99982.53;5074142;28;20131;-85
2022/04/05 04:25:09;;;;;;;3.60;2.20;;;;;;;10.98;28.62;99922.47;5070481;28;20098;-85
2022/04/05 04:27:36;;;;;;;3.30;1.47;;;;;;;11.13;28.83;99962.22;5071083;28;20095;-85
2022/04/05 04:30:04;;;;;;;1.87;1.30;;;;;;;11.02;28.48;99943.94;5084239;28;20111;-85
2022/04/05 04:32:31;;;;;;;2.70;1.20;;;;;;;11.00;28.68;99962.09;5071926;28;20537;-84
2022/04/05 04:34:58;;;;;;;2.67;1.50;;;;;;;11.07;28.87;99996.94;5071760;28;20048;-85
2022/04/05 04:37:25;;;;;;;4.90;1.70;;;;;;;11.41;28.72;100001.56;5056327;28;20091;-85
2022/04/05 04:39:52;;;;;;;4.47;1.80;;;;;;;11.21;27.88;99957.09;5060407;28;20088;-84
2022/04/05 04:42:19;;;;;;;1.50;1.40;;;;;;;11.56;28.08;100012.56;5073565;28;20133;-86
2022/04/05 04:44:46;;;;;;;1.67;0.90;;;;;;;10.60;28.13;99889.69;5068032;28;20053;-84
2022/04/05 04:47:13;;;;;;;3.50;1.70;;;;;;;9.92;27.83;99769.88;5066479;28;20049;-85
2022/04/05 04:49:40;;;;;;;3.63;1.97;;;;;;;10.53;27.78;99858.50;5070544;28;20056;-85
2022/04/05 04:52:07;;;;;;;4.07;1.60;;;;;;;10.55;27.58;99886.13;5069689;28;20040;-85
2022/04/05 04:54:34;;;;;;;3.47;1.40;;;;;;;10.90;27.97;99971.44;5067948;28;20519;-85
2022/04/05 04:57:01;;;;;;;2.30;1.20;;;;;;;10.10;27.86;99844.44;5069483;28;20052;-85
2022/04/05 04:59:28;;;;;;;2.93;1.60;;;;;;;9.86;27.96;99804.50;5096464;28;20056;-85
2022/04/05 05:01:55;;;;;;;2.77;1.70;;;;;;;10.53;28.19;99903.19;5086122;28;20049;-85
2022/04/05 05:04:22;;;;;;;3.23;1.60;;;;;;;10.88;27.99;99976.50;5091847;28;20048;-85
2022/04/05 05:06:51;;;;;;;2.93;1.70;;;;;;;10.44;28.07;99918.91;5096637;28;20072;-85
2022/04/05 05:09:18;;;;;;;8.43;1.70;;;;;;;9.99;28.34;99836.47;5076786;28;20071;-85
2022/04/05 05:11:46;;;;;;;3.10;1.73;;;;;;;10.96;27.94;99988.97;5091948;28;20072;-86
2022/04/05 05:14:13;;;;;;;1.93;1.50;;;;;;;10.15;28.05;99863.91;5072846;28;20487;-85
2022/04/05 05:16:40;;;;;;;4.00;1.27;;;;;;;10.61;28.44;99972.31;5071681;28;20793;-86
2022/04/05 05:19:06;;;;;;;3.30;1.90;;;;;;;10.92;28.52;100013.88;5072301;28;20044;-85
2022/04/05 05:21:34;;;;;;;3.87;1.37;;;;;;;9.88;28.86;99908.22;5076662;28;20041;-85
2022/04/05 05:24:00;;;;;;;2.40;1.77;;;;;;;10.57;28.82;99985.22;5083162;28;20099;-85
2022/04/05 05:26:28;;;;;;;5.40;2.20;;;;;;;10.83;28.92;100024.03;5061363;28;20060;-85
2022/04/05 05:28:54;;;;;;;2.80;1.90;;;;;;;10.75;28.84;100013.50;5072205;28;20083;-84
2022/04/05 05:31:21;;;;;;;2.93;2.07;;;;;;;10.59;29.24;100021.19;5065484;28;20106;-84
2022/04/05 05:33:48;;;;;;;3.37;2.07;;;;;;;10.15;29.22;99944.84;5069183;28;20460;-84
2022/04/05 05:36:15;;;;;;;5.73;1.53;;;;;;;10.38;29.06;99967.53;5071308;28;20127;-83
2022/04/05 05:38:42;;;;;;;1.50;0.80;;;;;;;10.45;29.32;100001.50;5075503;28;20053;-84
2022/04/05 05:41:09;;;;;;;2.83;1.90;;;;;;;10.05;30.04;99983.13;5064906;28;20079;-83
2022/04/05 05:43:37;;;;;;;3.83;1.57;;;;;;;10.08;30.02;99991.72;5071047;28;20469;-84
2022/04/05 05:46:06;;;;;;;3.03;1.80;;;;;;;10.06;29.66;99943.78;5075385;28;20131;-84
2022/04/05 05:48:34;;;;;;;3.13;1.13;;;;;;;9.95;30.30;99981.25;5062658;28;20045;-86
2022/04/05 05:51:00;;;;;;;3.80;2.33;;;;;;;10.09;30.28;100004.59;5060185;28;20558;-85
2022/04/05 05:53:27;;;;;;;3.67;1.40;;;;;;;10.49;29.75;100024.91;5066452;28;20095;-82
2022/04/05 05:55:54;;;;;;;1.27;0.90;;;;;;;10.18;29.91;99977.69;5070421;28;20080;-86
2022/04/05 05:58:21;;;;;;;1.47;1.20;;;;;;;10.15;30.17;100000.63;5071124;28;20098;-84
2022/04/05 06:00:48;;;;;;;5.50;2.23;;;;;;;9.96;30.73;99996.88;5071577;28;20099;-88
2022/04/05 06:03:17;;;;;;;3.03;1.63;;;;;;;9.92;30.11;99938.03;5062891;28;20076;-88
2022/04/05 06:05:45;;;;;;;1.70;1.10;;;;;;;9.89;30.80;99999.16;5068715;28;20060;-87
2022/04/05 06:08:17;;;;;;;3.97;1.87;;;;;;;10.30;30.50;100029.56;5066775;28;20050;-83
2022/04/05 06:10:44;;;;;;;2.87;1.50;;;;;;;10.25;30.45;100030.38;5065842;28;20083;-79
2022/04/05 06:13:12;;;;;;;1.67;1.13;;;;;;;9.86;30.48;99960.69;5062565;28;20115;-80
2022/04/05 06:15:39;;;;;;;2.60;1.60;;;;;;;10.20;30.43;100028.47;5080508;28;20429;-81
2022/04/05 06:18:06;;;;;;;2.33;1.30;;;;;;;9.92;30.92;100001.38;5066910;28;20128;-84
2022/04/05 06:20:33;;;;;;;0.67;0.67;;;;;;;10.28;30.25;100017.84;5068401;28;20053;-80
2022/04/05 06:23:02;;;;;;;5.90;2.27;;;;;;;10.53;30.30;100039.97;5069413;28;20123;-78
2022/04/05 06:25:34;;;;;;;3.20;2.15;;;;;;;10.26;30.09;100025.69;5062349;28;20065;-82
2022/04/05 06:28:05;;;;;;;4.00;1.90;;;;;;;10.54;30.48;100066.75;5061810;28;20127;-82
2022/04/05 06:30:33;;;;;;;2.60;1.27;;;;;;;10.42;30.42;100035.59;5063212;28;20122;-82
2022/04/05 06:33:20;;;;;;;3.20;1.70;;;;;;;10.72;30.24;100068.00;5062613;28;20076;-82
2022/04/05 06:35:51;;;;;;;3.33;1.70;;;;;;;10.76;30.24;100077.44;5065386;28;20057;-82
2022/04/05 06:38:19;;;;;;;3.78;2.17;;;;;;;10.74;30.36;100076.91;5074167;28;20139;-84
2022/04/05 06:40:47;;;;;;;1.80;1.43;;;;;;;10.47;30.78;100074.63;5072185;28;20092;-83
2022/04/05 06:43:15;;;;;;;0.90;0.80;;;;;;;10.60;30.74;100087.94;5073127;28;20116;-83
2022/04/05 06:45:43;;;;;;;4.30;2.67;;;;;;;10.61;31.01;100091.56;5069858;28;20470;-83
2022/04/05 06:48:10;;;;;;;4.07;1.73;;;;;;;10.53;31.07;100069.81;5067145;28;20572;-82
2022/04/05 06:50:39;;;;;;;5.13;2.17;;;;;;;10.74;30.82;100092.84;5063674;28;20136;-81
2022/04/05 06:53:08;;;;;;;9.80;2.57;;;;;;;10.83;30.53;100096.66;5069297;28;20083;-83
2022/04/05 06:55:35;;;;;;;2.27;1.23;;;;;;;10.68;31.04;100095.66;5070009;28;20139;-82
2022/04/05 06:58:04;;;;;;;4.97;2.37;;;;;;;10.76;30.97;100101.75;5076024;28;20045;-82
2022/04/05 07:00:33;;;;;;;2.80;1.67;;;;;;;10.66;30.79;100086.75;5075959;28;20080;-82
2022/04/05 07:03:00;;;;;;;2.33;1.17;;;;;;;10.68;31.13;100106.84;5088763;28;20131;-82
2022/04/05 07:05:28;;;;;;;4.17;1.70;;;;;;;10.54;31.86;100117.00;5063455;28;20099;-83
2022/04/05 07:07:56;;;;;;;4.63;2.30;;;;;;;10.60;31.30;100104.69;5063515;28;20055;-82
2022/04/05 07:10:23;;;;;;;3.47;2.00;;;;;;;10.88;30.67;100105.00;5075879;28;20500;-83
2022/04/05 07:12:51;;;;;;;3.50;2.03;;;;;;;10.83;30.80;100097.47;5074976;28;20048;-82
2022/04/05 07:15:18;;;;;;;3.70;1.90;;;;;;;11.05;30.86;100121.31;5066917;28;20113;-82
2022/04/05 07:17:45;;;;;;;7.40;2.17;;;;;;;11.13;30.71;100101.94;5073030;28;20123;-82
2022/04/05 07:20:29;;;;;;;2.23;1.10;;;;;;;11.17;30.70;100101.34;5064361;28;20040;-82
2022/04/05 07:22:55;;;;;;;3.50;1.83;;;;;;;11.31;30.74;100127.47;5060603;28;20512;-83
2022/04/05 07:25:24;;;;;;;6.00;2.43;;;;;;;11.45;30.39;100100.47;5067417;28;20151;-82
2022/04/05 07:27:51;;;;;;;2.80;1.70;;;;;;;11.72;30.46;100129.81;5065493;28;20044;-83
2022/04/05 07:30:20;;;;;;;7.73;2.50;;;;;;;11.57;30.44;100120.47;5061567;28;20114;-81
2022/04/05 07:32:48;;;;;;;5.03;2.10;;;;;;;11.55;30.53;100131.09;5057796;28;20056;-79
2022/04/05 07:35:15;;;;;;;4.17;2.70;;;;;;;11.54;30.30;100117.44;5064965;28;20079;-80
2022/04/05 07:37:43;;;;;;;3.90;2.50;;;;;;;11.69;30.44;100142.44;5081015;28;20102;-86
2022/04/05 07:40:11;;;;;;;6.10;2.27;;;;;;;11.31;30.49;100074.38;5069334;28;20544;-84
2022/04/05 07:42:40;;;;;;;3.63;2.03;;;;;;;11.51;30.38;100127.25;5064202;28;20094;-83
2022/04/05 07:45:11;;;;;;;4.93;2.17;;;;;;;11.52;30.47;100133.66;5068480;28;20076;-83
2022/04/05 07:47:39;;;;;;;3.13;2.20;;;;;;;11.30;30.77;100103.44;5060527;28;20106;-83
2022/04/05 07:50:07;;;;;;;4.30;2.47;;;;;;;11.71;30.52;100144.94;5067390;28;20492;-83
2022/04/05 07:52:34;;;;;;;9.80;2.60;;;;;;;11.52;30.46;100102.91;5070115;28;20049;-81
2022/04/05 07:55:03;;;;;;;5.77;2.67;;;;;;;11.94;30.47;100151.69;5058904;28;20082;-84
2022/04/05 07:57:30;;;;;;;6.10;2.20;;;;;;;11.91;30.42;100144.72;5071596;28;20076;-82
2022/04/05 07:59:58;;;;;;;8.57;2.90;;;;;;;11.92;30.33;100140.78;5064293;28;20084;-84
2022/04/05 08:02:26;;;;;;;4.40;2.00;;;;;;;12.06;30.16;100164.09;5072511;28;20052;-84
2022/04/05 08:04:59;;;;;;;6.77;2.77;;;;;;;12.02;29.93;100151.81;5071450;28;20053;-84
2022/04/05 08:07:27;;;;;;;4.63;2.83;;;;;;;11.91;29.94;100127.91;5073627;28;20053;-84
2022/04/05 08:09:54;;;;;;;10.83;5.47;;;;;;;12.41;29.62;100169.50;5065604;28;20185;-83
2022/04/05 08:12:21;;;;;;;4.83;2.63;;;;;;;11.72;29.69;100063.50;5076740;28;20099;-86
2022/04/05 08:14:47;;;;;;;4.67;2.40;;;;;;;12.28;29.57;100126.28;5068710;28;20053;-83
2022/04/05 08:17:15;;;;;;;3.40;2.30;;;;;;;12.70;29.36;100166.53;5073421;28;20066;-86
2022/04/05 08:19:41;;;;;;;5.70;3.13;;;;;;;12.70;29.45;100141.31;5079561;28;20049;-86
2022/04/05 08:22:09;;;;;;;6.20;2.73;;;;;;;12.97;29.14;100161.03;5068595;28;20106;-83
2022/04/05 08:24:36;;;;;;;7.97;2.67;;;;;;;12.89;29.09;100130.94;5070448;28;20091;-84
2022/04/05 08:27:03;;;;;;;5.37;2.60;;;;;;;13.07;29.07;100125.56;5094537;28;20048;-87
2022/04/05 08:29:30;;;;;;;9.73;3.53;;;;;;;13.35;28.82;100137.72;5083895;28;20078;-86
2022/04/05 08:31:57;;;;;;;7.13;2.83;;;;;;;12.92;28.77;100012.63;5066829;28;20044;-87
2022/04/05 08:34:25;;;;;;;5.00;2.30;;;;;;;13.34;28.41;100047.13;5079044;28;20045;-86
2022/04/05 08:36:53;;;;;;;6.20;3.60;;;;;;;14.18;28.39;100160.97;5072168;28;20075;-88
2022/04/05 08:39:20;;;;;;;5.33;2.70;;;;;;;13.87;28.23;100091.47;5073128;28;20078;-83
2022/04/05 08:41:48;;;;;;;7.43;3.60;;;;;;;14.48;28.25;100155.84;5068986;28;20087;-82
2022/04/05 08:44:18;;;;;;;5.60;2.57;;;;;;;14.24;28.12;100114.78;5069645;28;20101;-84
2022/04/05 08:46:45;;;;;;;;;;;;;;;14.76;28.13;100149.00;5074840;28;20106;-87
2022/04/05 08:49:13;;;;;;;7.20;2.73;;;;;;;14.54;27.90;100059.06;5077591;28;19928;-85
2022/04/05 08:51:40;;;;;;;6.20;2.77;;;;;;;14.87;27.68;100076.47;5073270;28;20045;-87
2022/04/05 08:54:07;;;;;;;5.83;2.90;;;;;;;15.64;27.47;100163.28;5074482;28;20546;-85
2022/04/05 08:56:34;;;;;;;7.17;3.13;;;;;;;15.16;27.26;100039.44;5086672;28;20098;-85
2022/04/05 08:59:02;;;;;;;9.50;3.73;;;;;;;16.11;27.24;100160.00;5077595;28;20052;-84
2022/04/05 09:01:29;;;;;;;4.33;2.87;;;;;;;16.03;26.61;100101.66;5069447;28;20053;-88
2022/04/05 09:03:57;;;;;;;6.73;3.33;;;;;;;16.66;26.46;100134.06;5075136;28;20058;-86
2022/04/05 09:06:27;;;;;;;10.07;3.77;;;;;;;16.99;26.21;100103.38;5075971;28;20075;-87
2022/04/05 09:09:08;;;;;;;7.07;3.38;;;;;;;17.28;25.76;100074.41;5077940;28;20048;-85
2022/04/05 09:11:35;;;;;;;11.63;3.33;;;;;;;18.14;25.42;100170.41;5081366;28;20083;-85
2022/04/05 09:14:04;;;;;;;6.63;3.65;;;;;;;18.36;25.25;100158.81;5075349;28;20052;-88
2022/04/05 09:16:33;;;;;;;3.55;2.50;;;;;;;18.52;24.51;100139.22;5082364;28;20067;-86
2022/04/05 09:19:10;;;;;;;5.45;2.35;;;;;;;17.93;24.07;100068.66;5076090;28;20059;-88
2022/04/05 09:21:54;;;;;;;5.03;2.50;;;;;;;18.67;23.46;100152.75;5087401;28;20379;-85
2022/04/05 09:24:21;;;;;;;3.08;2.10;;;;;;;18.74;23.43;100162.75;5076817;28;20068;-90
2022/04/05 09:26:48;;;;;;;7.22;2.67;;;;;;;17.35;22.68;99965.81;5073017;28;20052;-84
2022/04/05 09:29:16;;;;;;;6.85;2.85;;;;;;;17.38;22.88;100055.47;5073548;28;20135;-85
2022/04/05 09:31:48;;;;;;;3.53;2.45;;;;;;;17.45;22.91;100027.53;5076930;28;20045;-86
2022/04/05 09:34:19;;;;;;;4.28;2.40;;;;;;;18.40;22.87;100156.13;5081792;28;20049;-84
2022/04/05 09:36:49;;;;;;;5.05;2.63;;;;;;;17.98;23.04;100057.13;5080255;28;20075;-88
2022/04/05 09:39:16;;;;;;;;;;;;;;;18.29;22.77;100154.84;5079304;28;20040;-85
2022/04/05 09:41:44;;;;;;;5.20;2.90;;;;;;;17.44;22.95;100052.13;5079308;28;20384;-86
2022/04/05 09:44:12;;;;;;;6.50;2.53;;;;;;;17.80;23.40;100129.03;5073405;28;20044;-86
2022/04/05 09:46:40;;;;;;;4.15;3.05;;;;;;;17.21;23.47;100054.34;5070545;28;20468;-84
2022/04/05 09:49:13;;;;;;;4.57;2.45;;;;;;;16.98;23.23;100045.28;5075205;28;20048;-84
2022/04/05 09:51:46;;;;;;;4.30;1.92;;;;;;;16.87;23.60;100058.09;5076358;28;20040;-84
2022/04/05 09:54:27;;;;;;;5.15;2.33;;;;;;;16.01;23.51;100025.97;5074325;28;20533;-85
2022/04/05 09:57:07;;;;;;;4.27;2.30;;;;;;;16.51;23.89;100162.72;5074438;28;20489;-87
2022/04/05 09:59:46;;;;;;;8.27;2.60;;;;;;;16.15;24.30;100155.38;5074592;28;20190;-87
2022/04/05 10:02:15;;;;;;;6.53;2.93;;;;;;;16.17;24.62;100153.06;5073162;28;20109;-81
2022/04/05 10:05:09;;;;;;;6.63;3.10;;;;;;;16.25;24.70;100155.06;5069388;28;20302;-83
2022/04/05 10:07:36;;;;;;;5.40;2.93;;;;;;;16.10;24.90;100158.34;5074955;28;20573;-81
2022/04/05 10:10:06;;;;;;;11.20;4.50;;;;;;;16.03;24.91;100149.53;5065888;28;20531;-83
2022/04/05 10:12:37;;;;;;;9.33;3.80;;;;;;;15.51;24.83;100074.16;5075944;28;20055;-82
2022/04/05 10:15:04;;;;;;;5.77;2.77;;;;;;;16.09;25.01;100156.69;5071041;28;20067;-82
2022/04/05 10:17:33;;;;;;;4.30;2.70;;;;;;;16.26;24.73;100150.25;5076160;28;20125;-82
2022/04/05 10:20:01;;;;;;;4.85;2.70;;;;;;;16.52;24.36;100141.84;5076830;28;20044;-81
2022/04/05 10:22:29;;;;;;;5.73;3.23;;;;;;;17.01;24.14;100149.00;5071258;28;20562;-80
2022/04/05 10:24:56;;;;;;;10.17;2.83;;;;;;;17.05;23.91;100104.84;5073134;28;20044;-81
2022/04/05 10:27:25;;;;;;;5.10;2.80;;;;;;;17.48;23.64;100128.47;5071847;28;20132;-82
2022/04/05 10:30:10;;;;;;;4.67;3.10;;;;;;;17.82;23.47;100144.47;5076563;28;20137;-84
2022/04/05 10:32:46;;;;;;;5.43;2.87;;;;;;;17.92;23.29;100144.09;5095083;28;20068;-84
2022/04/05 10:35:15;;;;;;;5.10;2.85;;;;;;;18.05;23.56;100122.44;5074703;28;20052;-83
2022/04/05 10:37:42;;;;;;;3.63;2.30;;;;;;;18.17;23.37;100152.78;5067750;28;20056;-82
2022/04/05 10:40:10;;;;;;;6.88;2.92;;;;;;;18.16;23.44;100143.47;5067776;28;20178;-82
2022/04/05 10:42:46;;;;;;;4.40;2.33;;;;;;;18.08;22.83;100146.34;5071794;28;20394;-82
2022/04/05 10:45:18;;;;;;;4.05;2.38;;;;;;;17.34;23.28;100054.47;5070878;28;20056;-84
2022/04/05 10:48:13;;;;;;;4.63;2.25;;;;;;;17.45;23.42;100138.44;5069849;28;20084;-80
2022/04/05 10:51:00;;;;;;;4.88;3.17;;;;;;;17.36;23.40;100136.81;5084814;28;20063;-81
2022/04/05 10:53:39;;;;;;;6.22;2.70;;;;;;;17.44;23.63;100133.97;5081285;28;20535;-80
2022/04/05 10:56:07;;;;;;;4.37;2.37;;;;;;;17.52;23.28;100138.75;5073097;28;20060;-82
2022/04/05 10:58:35;;;;;;;4.45;1.80;;;;;;;17.26;23.83;100136.03;5068079;28;20052;-79
2022/04/05 11:01:25;;;;;;;7.93;2.78;;;;;;;17.07;23.72;100132.72;5069096;28;20060;-85
2022/04/05 11:04:16;;;;;;;5.10;2.30;;;;;;;16.88;24.14;100132.25;5070280;28;20057;-80
2022/04/05 11:07:13;;;;;;;4.07;2.23;;;;;;;16.75;24.22;100106.72;5070348;28;20056;-83
2022/04/05 11:09:43;;;;;;;6.73;2.53;;;;;;;16.18;24.04;100025.13;5075272;28;20069;-82
2022/04/05 11:12:16;;;;;;;5.75;2.08;;;;;;;16.70;24.27;100112.50;5068374;28;20056;-85
2022/04/05 11:14:47;;;;;;;4.10;2.77;;;;;;;16.34;24.15;100074.22;5071657;28;20060;-82
2022/04/05 11:17:15;;;;;;;3.03;1.90;;;;;;;15.61;23.95;99966.91;5075339;28;20048;-81
2022/04/05 11:19:52;;;;;;;6.00;2.37;;;;;;;16.55;23.75;100118.66;5072688;28;20053;-81
2022/04/05 11:22:19;;;;;;;3.03;2.27;;;;;;;16.64;23.52;100099.72;5073924;28;20090;-81
2022/04/05 11:24:59;;;;;;;6.07;2.87;;;;;;;17.20;23.86;100100.69;5062436;28;20049;-82
2022/04/05 11:27:35;;;;;;;5.63;2.80;;;;;;;17.67;23.53;100095.00;5071537;28;20072;-80
2022/04/05 11:30:26;;;;;;;1.93;1.30;;;;;;;17.69;22.45;100097.50;5070916;28;20060;-80
2022/04/05 11:33:09;;;;;;;3.45;1.77;;;;;;;17.55;22.48;100094.06;5069118;28;20105;-82
2022/04/05 11:35:57;;;;;;;5.78;3.13;;;;;;;17.90;22.49;100077.81;5072865;28;20053;-82
2022/04/05 11:38:31;;;;;;;5.07;2.33;;;;;;;17.98;22.45;99993.00;5074298;28;20032;-88